sensor_id;sensor_type;location;lat;lon;timestamp;P1;durP1;ratioP1;P2;durP2;ratioP2
71626;SDS011;59475;52.464;13.590;2023-04-07T00:00:56;13.43;;;8.53;;
71626;SDS011;59475;52.464;13.590;2023-04-07T00:03:22;15.20;;;8.87;;
71626;SDS011;59475;52.464;13.590;2023-04-07T00:05:47;13.53;;;8.23;;
71626;SDS011;59475;52.464;13.590;2023-04-07T00:08:13;14.02;;;9.10;;
71626;SDS011;59475;52.464;13.590;2023-04-07T00:10:38;13.47;;;9.03;;
71626;SDS011;59475;52.464;13.590;2023-04-07T00:13:05;12.27;;;8.70;;
71626;SDS011;59475;52.464;13.590;2023-04-07T00:15:30;13.50;;;8.80;;
71626;SDS011;59475;52.464;13.590;2023-04-07T00:17:56;13.27;;;9.03;;
71626;SDS011;59475;52.464;13.590;2023-04-07T00:20:21;14.23;;;8.80;;
71626;SDS011;59475;52.464;13.590;2023-04-07T00:22:47;12.43;;;8.63;;
71626;SDS011;59475;52.464;13.590;2023-04-07T00:25:12;14.98;;;8.55;;
71626;SDS011;59475;52.464;13.590;2023-04-07T00:27:38;13.30;;;8.73;;
71626;SDS011;59475;52.464;13.590;2023-04-07T00:30:03;13.23;;;8.77;;
71626;SDS011;59475;52.464;13.590;2023-04-07T00:32:29;16.10;;;7.90;;
71626;SDS011;59475;52.464;13.590;2023-04-07T00:34:55;13.27;;;8.90;;
71626;SDS011;59475;52.464;13.590;2023-04-07T00:37:20;16.50;;;9.00;;
71626;SDS011;59475;52.464;13.590;2023-04-07T00:39:45;14.37;;;8.20;;
71626;SDS011;59475;52.464;13.590;2023-04-07T00:42:11;11.57;;;8.13;;
71626;SDS011;59475;52.464;13.590;2023-04-07T00:44:36;12.17;;;8.23;;
71626;SDS011;59475;52.464;13.590;2023-04-07T00:47:02;13.03;;;9.03;;
71626;SDS011;59475;52.464;13.590;2023-04-07T00:49:27;11.73;;;8.67;;
71626;SDS011;59475;52.464;13.590;2023-04-07T00:51:53;12.10;;;8.07;;
71626;SDS011;59475;52.464;13.590;2023-04-07T00:54:20;13.75;;;9.05;;
71626;SDS011;59475;52.464;13.590;2023-04-07T00:56:47;12.88;;;8.70;;
71626;SDS011;59475;52.464;13.590;2023-04-07T00:59:12;14.13;;;8.90;;
71626;SDS011;59475;52.464;13.590;2023-04-07T01:04:37;13.63;;;8.10;;
71626;SDS011;59475;52.464;13.590;2023-04-07T01:07:10;12.70;;;8.40;;
71626;SDS011;59475;52.464;13.590;2023-04-07T01:10:00;14.02;;;8.77;;
71626;SDS011;59475;52.464;13.590;2023-04-07T01:15:16;16.23;;;8.25;;
71626;SDS011;59475;52.464;13.590;2023-04-07T01:17:51;12.33;;;8.87;;
71626;SDS011;59475;52.464;13.590;2023-04-07T01:20:24;13.57;;;8.57;;
71626;SDS011;59475;52.464;13.590;2023-04-07T01:22:56;12.40;;;8.60;;
71626;SDS011;59475;52.464;13.590;2023-04-07T01:25:26;12.00;;;8.20;;
71626;SDS011;59475;52.464;13.590;2023-04-07T01:30:27;14.17;;;8.60;;
71626;SDS011;59475;52.464;13.590;2023-04-07T01:32:55;13.75;;;9.40;;
71626;SDS011;59475;52.464;13.590;2023-04-07T01:35:22;10.55;;;8.27;;
71626;SDS011;59475;52.464;13.590;2023-04-07T01:37:50;11.20;;;8.95;;
71626;SDS011;59475;52.464;13.590;2023-04-07T01:40:17;13.13;;;8.82;;
71626;SDS011;59475;52.464;13.590;2023-04-07T01:42:44;13.40;;;9.40;;
71626;SDS011;59475;52.464;13.590;2023-04-07T01:45:10;14.35;;;9.20;;
71626;SDS011;59475;52.464;13.590;2023-04-07T01:47:36;12.23;;;9.55;;
71626;SDS011;59475;52.464;13.590;2023-04-07T01:50:03;13.70;;;9.25;;
71626;SDS011;59475;52.464;13.590;2023-04-07T01:52:32;14.00;;;8.50;;
71626;SDS011;59475;52.464;13.590;2023-04-07T01:54:59;15.00;;;8.97;;
71626;SDS011;59475;52.464;13.590;2023-04-07T01:57:24;11.80;;;8.60;;
71626;SDS011;59475;52.464;13.590;2023-04-07T01:59:50;14.80;;;9.33;;
71626;SDS011;59475;52.464;13.590;2023-04-07T02:02:15;14.93;;;10.40;;
71626;SDS011;59475;52.464;13.590;2023-04-07T02:04:48;14.17;;;9.07;;
71626;SDS011;59475;52.464;13.590;2023-04-07T02:07:35;14.95;;;9.27;;
71626;SDS011;59475;52.464;13.590;2023-04-07T02:10:08;15.23;;;9.60;;
71626;SDS011;59475;52.464;13.590;2023-04-07T02:12:36;11.10;;;8.60;;
71626;SDS011;59475;52.464;13.590;2023-04-07T02:15:03;14.13;;;9.15;;
71626;SDS011;59475;52.464;13.590;2023-04-07T02:17:30;13.75;;;9.07;;
71626;SDS011;59475;52.464;13.590;2023-04-07T02:19:58;12.73;;;8.70;;
71626;SDS011;59475;52.464;13.590;2023-04-07T02:22:25;11.63;;;8.57;;
71626;SDS011;59475;52.464;13.590;2023-04-07T02:24:51;12.80;;;9.23;;
71626;SDS011;59475;52.464;13.590;2023-04-07T02:27:17;14.27;;;9.98;;
71626;SDS011;59475;52.464;13.590;2023-04-07T02:29:42;12.63;;;9.13;;
71626;SDS011;59475;52.464;13.590;2023-04-07T02:32:08;13.70;;;9.73;;
71626;SDS011;59475;52.464;13.590;2023-04-07T02:34:33;15.03;;;9.13;;
71626;SDS011;59475;52.464;13.590;2023-04-07T02:36:58;13.20;;;8.37;;
71626;SDS011;59475;52.464;13.590;2023-04-07T02:39:24;10.57;;;8.55;;
71626;SDS011;59475;52.464;13.590;2023-04-07T02:41:49;15.50;;;9.13;;
71626;SDS011;59475;52.464;13.590;2023-04-07T02:44:15;13.67;;;8.93;;
71626;SDS011;59475;52.464;13.590;2023-04-07T02:46:40;13.30;;;9.13;;
71626;SDS011;59475;52.464;13.590;2023-04-07T02:49:06;11.13;;;8.38;;
71626;SDS011;59475;52.464;13.590;2023-04-07T02:51:31;15.27;;;9.20;;
71626;SDS011;59475;52.464;13.590;2023-04-07T02:53:57;14.23;;;8.93;;
71626;SDS011;59475;52.464;13.590;2023-04-07T02:56:22;13.57;;;8.60;;
71626;SDS011;59475;52.464;13.590;2023-04-07T02:58:48;13.10;;;8.83;;
71626;SDS011;59475;52.464;13.590;2023-04-07T03:01:13;13.27;;;8.47;;
71626;SDS011;59475;52.464;13.590;2023-04-07T03:03:38;14.57;;;8.97;;
71626;SDS011;59475;52.464;13.590;2023-04-07T03:06:06;14.13;;;9.38;;
71626;SDS011;59475;52.464;13.590;2023-04-07T03:08:31;12.77;;;8.38;;
71626;SDS011;59475;52.464;13.590;2023-04-07T03:10:57;13.47;;;8.97;;
71626;SDS011;59475;52.464;13.590;2023-04-07T03:13:22;11.90;;;8.20;;
71626;SDS011;59475;52.464;13.590;2023-04-07T03:15:48;12.43;;;9.50;;
71626;SDS011;59475;52.464;13.590;2023-04-07T03:18:13;13.55;;;8.93;;
71626;SDS011;59475;52.464;13.590;2023-04-07T03:20:38;13.17;;;9.47;;
71626;SDS011;59475;52.464;13.590;2023-04-07T03:23:06;14.70;;;9.23;;
71626;SDS011;59475;52.464;13.590;2023-04-07T03:25:31;12.60;;;9.07;;
71626;SDS011;59475;52.464;13.590;2023-04-07T03:27:57;12.65;;;8.95;;
71626;SDS011;59475;52.464;13.590;2023-04-07T03:30:23;13.27;;;9.33;;
71626;SDS011;59475;52.464;13.590;2023-04-07T03:32:49;15.38;;;8.68;;
71626;SDS011;59475;52.464;13.590;2023-04-07T03:35:15;15.77;;;9.00;;
71626;SDS011;59475;52.464;13.590;2023-04-07T03:37:40;12.10;;;8.73;;
71626;SDS011;59475;52.464;13.590;2023-04-07T03:40:06;11.00;;;8.33;;
71626;SDS011;59475;52.464;13.590;2023-04-07T03:42:32;15.38;;;9.25;;
71626;SDS011;59475;52.464;13.590;2023-04-07T03:44:57;11.70;;;8.70;;
71626;SDS011;59475;52.464;13.590;2023-04-07T03:47:22;12.67;;;8.83;;
71626;SDS011;59475;52.464;13.590;2023-04-07T03:49:48;13.43;;;9.23;;
71626;SDS011;59475;52.464;13.590;2023-04-07T03:52:13;12.40;;;8.63;;
71626;SDS011;59475;52.464;13.590;2023-04-07T03:54:39;14.03;;;9.13;;
71626;SDS011;59475;52.464;13.590;2023-04-07T03:57:05;13.18;;;8.35;;
71626;SDS011;59475;52.464;13.590;2023-04-07T03:59:31;12.03;;;8.50;;
71626;SDS011;59475;52.464;13.590;2023-04-07T04:01:56;11.93;;;8.50;;
71626;SDS011;59475;52.464;13.590;2023-04-07T04:04:22;12.20;;;8.60;;
71626;SDS011;59475;52.464;13.590;2023-04-07T04:06:48;13.68;;;8.45;;
71626;SDS011;59475;52.464;13.590;2023-04-07T04:09:14;13.60;;;8.75;;
71626;SDS011;59475;52.464;13.590;2023-04-07T04:11:40;13.23;;;9.63;;
71626;SDS011;59475;52.464;13.590;2023-04-07T04:14:05;12.27;;;8.20;;
71626;SDS011;59475;52.464;13.590;2023-04-07T04:16:32;14.63;;;8.88;;
71626;SDS011;59475;52.464;13.590;2023-04-07T04:18:59;11.37;;;8.40;;
71626;SDS011;59475;52.464;13.590;2023-04-07T04:21:24;11.85;;;8.52;;
71626;SDS011;59475;52.464;13.590;2023-04-07T04:23:51;14.37;;;8.37;;
71626;SDS011;59475;52.464;13.590;2023-04-07T04:26:16;14.43;;;8.38;;
71626;SDS011;59475;52.464;13.590;2023-04-07T04:28:42;12.93;;;8.50;;
71626;SDS011;59475;52.464;13.590;2023-04-07T04:31:07;13.17;;;8.13;;
71626;SDS011;59475;52.464;13.590;2023-04-07T04:33:33;12.38;;;8.57;;
71626;SDS011;59475;52.464;13.590;2023-04-07T04:35:58;12.53;;;8.80;;
71626;SDS011;59475;52.464;13.590;2023-04-07T04:38:23;15.93;;;8.87;;
71626;SDS011;59475;52.464;13.590;2023-04-07T04:40:49;14.93;;;9.20;;
71626;SDS011;59475;52.464;13.590;2023-04-07T04:43:14;12.53;;;8.40;;
71626;SDS011;59475;52.464;13.590;2023-04-07T04:45:40;12.40;;;8.68;;
71626;SDS011;59475;52.464;13.590;2023-04-07T04:48:05;12.47;;;8.27;;
71626;SDS011;59475;52.464;13.590;2023-04-07T04:50:31;11.90;;;8.53;;
71626;SDS011;59475;52.464;13.590;2023-04-07T04:52:56;15.07;;;8.43;;
71626;SDS011;59475;52.464;13.590;2023-04-07T04:55:21;12.27;;;8.47;;
71626;SDS011;59475;52.464;13.590;2023-04-07T04:57:47;14.00;;;9.02;;
71626;SDS011;59475;52.464;13.590;2023-04-07T05:00:12;11.60;;;7.90;;
71626;SDS011;59475;52.464;13.590;2023-04-07T05:02:38;11.03;;;8.13;;
71626;SDS011;59475;52.464;13.590;2023-04-07T05:05:03;12.43;;;7.95;;
71626;SDS011;59475;52.464;13.590;2023-04-07T05:07:29;12.60;;;8.40;;
71626;SDS011;59475;52.464;13.590;2023-04-07T05:09:55;16.13;;;9.73;;
71626;SDS011;59475;52.464;13.590;2023-04-07T05:12:20;10.67;;;8.33;;
71626;SDS011;59475;52.464;13.590;2023-04-07T05:14:46;12.20;;;8.20;;
71626;SDS011;59475;52.464;13.590;2023-04-07T05:17:11;17.35;;;8.52;;
71626;SDS011;59475;52.464;13.590;2023-04-07T05:19:37;11.07;;;7.50;;
71626;SDS011;59475;52.464;13.590;2023-04-07T05:22:02;11.63;;;8.37;;
71626;SDS011;59475;52.464;13.590;2023-04-07T05:24:28;10.77;;;7.33;;
71626;SDS011;59475;52.464;13.590;2023-04-07T05:26:53;15.07;;;8.63;;
71626;SDS011;59475;52.464;13.590;2023-04-07T05:29:20;11.50;;;7.75;;
71626;SDS011;59475;52.464;13.590;2023-04-07T05:31:46;11.77;;;7.73;;
71626;SDS011;59475;52.464;13.590;2023-04-07T05:34:11;12.53;;;8.10;;
71626;SDS011;59475;52.464;13.590;2023-04-07T05:36:36;11.43;;;7.80;;
71626;SDS011;59475;52.464;13.590;2023-04-07T05:39:02;11.47;;;8.10;;
71626;SDS011;59475;52.464;13.590;2023-04-07T05:41:27;11.07;;;7.53;;
71626;SDS011;59475;52.464;13.590;2023-04-07T05:43:52;11.33;;;8.13;;
71626;SDS011;59475;52.464;13.590;2023-04-07T05:46:18;10.30;;;8.00;;
71626;SDS011;59475;52.464;13.590;2023-04-07T05:48:43;13.17;;;7.83;;
71626;SDS011;59475;52.464;13.590;2023-04-07T05:51:09;11.43;;;8.25;;
71626;SDS011;59475;52.464;13.590;2023-04-07T05:53:34;11.80;;;7.57;;
71626;SDS011;59475;52.464;13.590;2023-04-07T05:56:00;13.33;;;8.33;;
71626;SDS011;59475;52.464;13.590;2023-04-07T05:58:25;14.13;;;8.68;;
71626;SDS011;59475;52.464;13.590;2023-04-07T06:00:52;14.03;;;8.30;;
71626;SDS011;59475;52.464;13.590;2023-04-07T06:03:17;13.98;;;8.73;;
71626;SDS011;59475;52.464;13.590;2023-04-07T06:05:45;13.37;;;8.67;;
71626;SDS011;59475;52.464;13.590;2023-04-07T06:08:11;17.08;;;9.15;;
71626;SDS011;59475;52.464;13.590;2023-04-07T06:10:36;11.60;;;8.10;;
71626;SDS011;59475;52.464;13.590;2023-04-07T06:13:01;12.63;;;8.20;;
71626;SDS011;59475;52.464;13.590;2023-04-07T06:15:27;15.57;;;8.63;;
71626;SDS011;59475;52.464;13.590;2023-04-07T06:17:52;11.20;;;7.75;;
71626;SDS011;59475;52.464;13.590;2023-04-07T06:20:17;13.23;;;8.00;;
71626;SDS011;59475;52.464;13.590;2023-04-07T06:22:45;12.55;;;8.20;;
71626;SDS011;59475;52.464;13.590;2023-04-07T06:25:11;13.03;;;8.73;;
71626;SDS011;59475;52.464;13.590;2023-04-07T06:27:36;12.23;;;7.97;;
71626;SDS011;59475;52.464;13.590;2023-04-07T06:30:02;15.43;;;8.32;;
71626;SDS011;59475;52.464;13.590;2023-04-07T06:32:27;15.80;;;8.53;;
71626;SDS011;59475;52.464;13.590;2023-04-07T06:34:53;12.43;;;8.13;;
71626;SDS011;59475;52.464;13.590;2023-04-07T06:37:18;14.65;;;8.25;;
71626;SDS011;59475;52.464;13.590;2023-04-07T06:39:44;14.63;;;7.80;;
71626;SDS011;59475;52.464;13.590;2023-04-07T06:42:10;11.93;;;7.87;;
71626;SDS011;59475;52.464;13.590;2023-04-07T06:44:35;12.38;;;8.35;;
71626;SDS011;59475;52.464;13.590;2023-04-07T06:47:00;14.43;;;8.17;;
71626;SDS011;59475;52.464;13.590;2023-04-07T06:49:26;12.03;;;7.73;;
71626;SDS011;59475;52.464;13.590;2023-04-07T06:51:51;12.57;;;7.60;;
71626;SDS011;59475;52.464;13.590;2023-04-07T06:54:16;14.47;;;7.63;;
71626;SDS011;59475;52.464;13.590;2023-04-07T06:56:42;10.70;;;7.85;;
71626;SDS011;59475;52.464;13.590;2023-04-07T06:59:08;15.23;;;8.63;;
71626;SDS011;59475;52.464;13.590;2023-04-07T07:01:34;8.80;;;5.40;;
71626;SDS011;59475;52.464;13.590;2023-04-07T07:04:02;8.47;;;5.70;;
71626;SDS011;59475;52.464;13.590;2023-04-07T07:06:28;11.40;;;7.13;;
71626;SDS011;59475;52.464;13.590;2023-04-07T07:08:55;10.57;;;6.63;;
71626;SDS011;59475;52.464;13.590;2023-04-07T07:11:20;15.20;;;7.43;;
71626;SDS011;59475;52.464;13.590;2023-04-07T07:13:46;10.50;;;5.47;;
71626;SDS011;59475;52.464;13.590;2023-04-07T07:16:12;12.40;;;6.97;;
71626;SDS011;59475;52.464;13.590;2023-04-07T07:18:38;13.00;;;7.63;;
71626;SDS011;59475;52.464;13.590;2023-04-07T07:21:03;10.43;;;6.45;;
71626;SDS011;59475;52.464;13.590;2023-04-07T07:23:29;11.73;;;6.90;;
71626;SDS011;59475;52.464;13.590;2023-04-07T07:25:55;8.93;;;6.10;;
71626;SDS011;59475;52.464;13.590;2023-04-07T07:28:20;8.43;;;4.93;;
71626;SDS011;59475;52.464;13.590;2023-04-07T07:30:46;11.23;;;6.72;;
71626;SDS011;59475;52.464;13.590;2023-04-07T07:33:12;10.83;;;6.83;;
71626;SDS011;59475;52.464;13.590;2023-04-07T07:35:37;8.90;;;6.10;;
71626;SDS011;59475;52.464;13.590;2023-04-07T07:38:04;12.43;;;7.00;;
71626;SDS011;59475;52.464;13.590;2023-04-07T07:40:30;12.88;;;7.68;;
71626;SDS011;59475;52.464;13.590;2023-04-07T07:42:56;10.82;;;7.07;;
71626;SDS011;59475;52.464;13.590;2023-04-07T07:45:21;14.63;;;7.30;;
71626;SDS011;59475;52.464;13.590;2023-04-07T07:47:46;12.63;;;7.50;;
71626;SDS011;59475;52.464;13.590;2023-04-07T07:50:12;13.17;;;7.53;;
71626;SDS011;59475;52.464;13.590;2023-04-07T07:52:37;13.27;;;6.30;;
71626;SDS011;59475;52.464;13.590;2023-04-07T07:55:03;10.65;;;6.68;;
71626;SDS011;59475;52.464;13.590;2023-04-07T07:57:28;7.83;;;5.57;;
71626;SDS011;59475;52.464;13.590;2023-04-07T07:59:55;11.77;;;5.35;;
71626;SDS011;59475;52.464;13.590;2023-04-07T08:02:21;10.03;;;5.70;;
71626;SDS011;59475;52.464;13.590;2023-04-07T08:04:46;7.67;;;5.03;;
71626;SDS011;59475;52.464;13.590;2023-04-07T08:07:13;13.52;;;6.85;;
71626;SDS011;59475;52.464;13.590;2023-04-07T08:09:38;8.60;;;5.50;;
71626;SDS011;59475;52.464;13.590;2023-04-07T08:12:03;9.68;;;5.70;;
71626;SDS011;59475;52.464;13.590;2023-04-07T08:14:29;9.60;;;6.30;;
71626;SDS011;59475;52.464;13.590;2023-04-07T08:16:54;11.00;;;6.60;;
71626;SDS011;59475;52.464;13.590;2023-04-07T08:19:20;9.13;;;6.40;;
71626;SDS011;59475;52.464;13.590;2023-04-07T08:21:45;6.95;;;3.78;;
71626;SDS011;59475;52.464;13.590;2023-04-07T08:24:11;28.23;;;13.73;;
71626;SDS011;59475;52.464;13.590;2023-04-07T08:26:36;13.70;;;8.03;;
71626;SDS011;59475;52.464;13.590;2023-04-07T08:29:02;11.98;;;7.55;;
71626;SDS011;59475;52.464;13.590;2023-04-07T08:31:27;8.10;;;5.37;;
71626;SDS011;59475;52.464;13.590;2023-04-07T08:33:53;12.67;;;5.53;;
71626;SDS011;59475;52.464;13.590;2023-04-07T08:36:22;8.55;;;5.32;;
71626;SDS011;59475;52.464;13.590;2023-04-07T08:38:52;9.20;;;5.90;;
71626;SDS011;59475;52.464;13.590;2023-04-07T08:41:28;6.43;;;3.60;;
71626;SDS011;59475;52.464;13.590;2023-04-07T08:44:00;7.75;;;4.55;;
71626;SDS011;59475;52.464;13.590;2023-04-07T08:46:26;9.40;;;5.25;;
71626;SDS011;59475;52.464;13.590;2023-04-07T08:48:52;7.63;;;4.40;;
71626;SDS011;59475;52.464;13.590;2023-04-07T08:51:27;7.25;;;4.38;;
71626;SDS011;59475;52.464;13.590;2023-04-07T08:53:57;8.20;;;4.50;;
71626;SDS011;59475;52.464;13.590;2023-04-07T08:56:29;6.78;;;5.07;;
71626;SDS011;59475;52.464;13.590;2023-04-07T08:58:57;8.80;;;5.32;;
71626;SDS011;59475;52.464;13.590;2023-04-07T09:01:23;9.13;;;4.40;;
71626;SDS011;59475;52.464;13.590;2023-04-07T09:03:49;6.68;;;3.97;;
71626;SDS011;59475;52.464;13.590;2023-04-07T09:06:15;5.40;;;3.87;;
71626;SDS011;59475;52.464;13.590;2023-04-07T09:08:41;5.97;;;4.00;;
71626;SDS011;59475;52.464;13.590;2023-04-07T09:11:06;7.27;;;4.00;;
71626;SDS011;59475;52.464;13.590;2023-04-07T09:13:31;8.43;;;2.93;;
71626;SDS011;59475;52.464;13.590;2023-04-07T09:15:58;4.47;;;2.73;;
71626;SDS011;59475;52.464;13.590;2023-04-07T09:18:26;5.80;;;3.60;;
71626;SDS011;59475;52.464;13.590;2023-04-07T09:20:56;7.82;;;3.42;;
71626;SDS011;59475;52.464;13.590;2023-04-07T09:23:31;4.80;;;3.50;;
71626;SDS011;59475;52.464;13.590;2023-04-07T09:25:58;5.72;;;3.70;;
71626;SDS011;59475;52.464;13.590;2023-04-07T09:28:25;9.57;;;3.70;;
71626;SDS011;59475;52.464;13.590;2023-04-07T09:31:02;8.30;;;2.95;;
71626;SDS011;59475;52.464;13.590;2023-04-07T09:33:27;7.47;;;3.97;;
71626;SDS011;59475;52.464;13.590;2023-04-07T09:35:54;5.13;;;3.65;;
71626;SDS011;59475;52.464;13.590;2023-04-07T09:38:20;5.70;;;3.88;;
71626;SDS011;59475;52.464;13.590;2023-04-07T09:40:45;4.07;;;2.93;;
71626;SDS011;59475;52.464;13.590;2023-04-07T09:43:16;3.28;;;2.70;;
71626;SDS011;59475;52.464;13.590;2023-04-07T09:45:43;3.45;;;2.25;;
71626;SDS011;59475;52.464;13.590;2023-04-07T09:48:18;6.00;;;3.38;;
71626;SDS011;59475;52.464;13.590;2023-04-07T09:50:44;4.30;;;2.63;;
71626;SDS011;59475;52.464;13.590;2023-04-07T09:53:13;3.78;;;2.92;;
71626;SDS011;59475;52.464;13.590;2023-04-07T09:55:39;5.63;;;3.40;;
71626;SDS011;59475;52.464;13.590;2023-04-07T09:58:08;6.80;;;3.13;;
71626;SDS011;59475;52.464;13.590;2023-04-07T10:00:37;4.13;;;2.75;;
71626;SDS011;59475;52.464;13.590;2023-04-07T10:03:03;5.37;;;2.83;;
71626;SDS011;59475;52.464;13.590;2023-04-07T10:05:30;4.60;;;2.78;;
71626;SDS011;59475;52.464;13.590;2023-04-07T10:07:55;3.63;;;2.35;;
71626;SDS011;59475;52.464;13.590;2023-04-07T10:10:21;4.80;;;3.17;;
71626;SDS011;59475;52.464;13.590;2023-04-07T10:12:46;5.03;;;2.60;;
71626;SDS011;59475;52.464;13.590;2023-04-07T10:15:13;4.57;;;3.30;;
71626;SDS011;59475;52.464;13.590;2023-04-07T10:17:40;7.20;;;3.95;;
71626;SDS011;59475;52.464;13.590;2023-04-07T10:20:11;7.70;;;3.40;;
71626;SDS011;59475;52.464;13.590;2023-04-07T10:22:37;5.85;;;3.25;;
71626;SDS011;59475;52.464;13.590;2023-04-07T10:25:06;6.80;;;3.73;;
71626;SDS011;59475;52.464;13.590;2023-04-07T10:27:39;4.90;;;3.30;;
71626;SDS011;59475;52.464;13.590;2023-04-07T10:30:30;6.10;;;4.07;;
71626;SDS011;59475;52.464;13.590;2023-04-07T10:32:57;3.55;;;2.42;;
71626;SDS011;59475;52.464;13.590;2023-04-07T10:35:23;5.95;;;3.17;;
71626;SDS011;59475;52.464;13.590;2023-04-07T10:40:37;6.95;;;4.72;;
71626;SDS011;59475;52.464;13.590;2023-04-07T10:43:03;7.65;;;4.85;;
71626;SDS011;59475;52.464;13.590;2023-04-07T10:48:11;16.63;;;8.52;;
71626;SDS011;59475;52.464;13.590;2023-04-07T10:50:38;15.55;;;8.38;;
71626;SDS011;59475;52.464;13.590;2023-04-07T10:53:13;7.53;;;4.53;;
71626;SDS011;59475;52.464;13.590;2023-04-07T10:55:42;4.22;;;3.15;;
71626;SDS011;59475;52.464;13.590;2023-04-07T11:00:37;5.80;;;3.75;;
71626;SDS011;59475;52.464;13.590;2023-04-07T11:03:12;8.97;;;4.80;;
71626;SDS011;59475;52.464;13.590;2023-04-07T11:05:41;8.30;;;4.90;;
71626;SDS011;59475;52.464;13.590;2023-04-07T11:08:07;6.75;;;3.55;;
71626;SDS011;59475;52.464;13.590;2023-04-07T11:10:33;8.97;;;5.50;;
71626;SDS011;59475;52.464;13.590;2023-04-07T11:15:29;5.45;;;3.38;;
71626;SDS011;59475;52.464;13.590;2023-04-07T11:18:13;11.90;;;6.17;;
71626;SDS011;59475;52.464;13.590;2023-04-07T11:23:07;6.97;;;4.75;;
71626;SDS011;59475;52.464;13.590;2023-04-07T11:25:33;6.68;;;4.68;;
71626;SDS011;59475;52.464;13.590;2023-04-07T11:27:59;9.95;;;5.55;;
71626;SDS011;59475;52.464;13.590;2023-04-07T11:30:25;9.27;;;6.40;;
71626;SDS011;59475;52.464;13.590;2023-04-07T11:32:52;20.85;;;11.43;;
71626;SDS011;59475;52.464;13.590;2023-04-07T11:35:18;12.53;;;7.13;;
71626;SDS011;59475;52.464;13.590;2023-04-07T11:37:44;13.20;;;8.15;;
71626;SDS011;59475;52.464;13.590;2023-04-07T11:40:10;17.98;;;10.40;;
71626;SDS011;59475;52.464;13.590;2023-04-07T11:42:37;17.33;;;10.35;;
71626;SDS011;59475;52.464;13.590;2023-04-07T11:45:04;22.73;;;13.17;;
71626;SDS011;59475;52.464;13.590;2023-04-07T11:47:37;21.25;;;14.02;;
71626;SDS011;59475;52.464;13.590;2023-04-07T11:50:03;20.50;;;12.48;;
71626;SDS011;59475;52.464;13.590;2023-04-07T11:52:43;23.50;;;14.25;;
71626;SDS011;59475;52.464;13.590;2023-04-07T11:55:18;23.08;;;13.90;;
71626;SDS011;59475;52.464;13.590;2023-04-07T11:57:45;25.93;;;15.97;;
71626;SDS011;59475;52.464;13.590;2023-04-07T12:00:11;23.88;;;14.32;;
71626;SDS011;59475;52.464;13.590;2023-04-07T12:02:38;26.05;;;16.15;;
71626;SDS011;59475;52.464;13.590;2023-04-07T12:05:04;25.80;;;13.90;;
71626;SDS011;59475;52.464;13.590;2023-04-07T12:07:30;21.05;;;12.73;;
71626;SDS011;59475;52.464;13.590;2023-04-07T12:09:56;28.37;;;16.23;;
71626;SDS011;59475;52.464;13.590;2023-04-07T12:12:24;23.80;;;13.23;;
71626;SDS011;59475;52.464;13.590;2023-04-07T12:14:54;18.77;;;10.80;;
71626;SDS011;59475;52.464;13.590;2023-04-07T12:17:24;28.70;;;15.05;;
71626;SDS011;59475;52.464;13.590;2023-04-07T12:19:51;21.57;;;11.37;;
71626;SDS011;59475;52.464;13.590;2023-04-07T12:22:17;19.60;;;11.27;;
71626;SDS011;59475;52.464;13.590;2023-04-07T12:24:43;25.48;;;13.23;;
71626;SDS011;59475;52.464;13.590;2023-04-07T12:27:09;19.37;;;11.03;;
71626;SDS011;59475;52.464;13.590;2023-04-07T12:29:34;24.50;;;14.40;;
71626;SDS011;59475;52.464;13.590;2023-04-07T12:32:03;21.30;;;11.40;;
71626;SDS011;59475;52.464;13.590;2023-04-07T12:34:29;24.30;;;13.55;;
71626;SDS011;59475;52.464;13.590;2023-04-07T12:36:54;23.37;;;13.17;;
71626;SDS011;59475;52.464;13.590;2023-04-07T12:39:19;40.80;;;15.20;;
71626;SDS011;59475;52.464;13.590;2023-04-07T12:41:45;25.88;;;13.13;;
71626;SDS011;59475;52.464;13.590;2023-04-07T12:44:12;23.58;;;13.40;;
71626;SDS011;59475;52.464;13.590;2023-04-07T12:46:38;23.17;;;11.90;;
71626;SDS011;59475;52.464;13.590;2023-04-07T12:49:05;30.52;;;14.90;;
71626;SDS011;59475;52.464;13.590;2023-04-07T12:51:30;41.10;;;19.10;;
71626;SDS011;59475;52.464;13.590;2023-04-07T12:53:57;23.02;;;11.10;;
71626;SDS011;59475;52.464;13.590;2023-04-07T12:56:24;35.63;;;16.63;;
71626;SDS011;59475;52.464;13.590;2023-04-07T12:58:50;30.63;;;14.30;;
71626;SDS011;59475;52.464;13.590;2023-04-07T13:01:17;17.88;;;9.25;;
71626;SDS011;59475;52.464;13.590;2023-04-07T13:03:42;19.97;;;10.23;;
71626;SDS011;59475;52.464;13.590;2023-04-07T13:06:08;16.67;;;8.95;;
71626;SDS011;59475;52.464;13.590;2023-04-07T13:08:34;21.57;;;9.40;;
71626;SDS011;59475;52.464;13.590;2023-04-07T13:11:00;18.38;;;7.60;;
71626;SDS011;59475;52.464;13.590;2023-04-07T13:13:25;13.30;;;7.50;;
71626;SDS011;59475;52.464;13.590;2023-04-07T13:15:51;18.37;;;8.40;;
71626;SDS011;59475;52.464;13.590;2023-04-07T13:18:17;15.15;;;8.02;;
71626;SDS011;59475;52.464;13.590;2023-04-07T13:20:42;12.40;;;6.23;;
71626;SDS011;59475;52.464;13.590;2023-04-07T13:23:08;14.00;;;7.60;;
71626;SDS011;59475;52.464;13.590;2023-04-07T13:25:33;13.97;;;8.30;;
71626;SDS011;59475;52.464;13.590;2023-04-07T13:27:59;13.07;;;7.07;;
71626;SDS011;59475;52.464;13.590;2023-04-07T13:30:24;10.87;;;5.30;;
71626;SDS011;59475;52.464;13.590;2023-04-07T13:32:50;7.22;;;4.22;;
71626;SDS011;59475;52.464;13.590;2023-04-07T13:35:16;10.20;;;6.17;;
71626;SDS011;59475;52.464;13.590;2023-04-07T13:37:41;9.03;;;4.70;;
71626;SDS011;59475;52.464;13.590;2023-04-07T13:40:08;11.02;;;6.82;;
71626;SDS011;59475;52.464;13.590;2023-04-07T13:42:34;11.02;;;4.15;;
71626;SDS011;59475;52.464;13.590;2023-04-07T13:45:00;10.40;;;6.37;;
71626;SDS011;59475;52.464;13.590;2023-04-07T13:47:25;11.10;;;5.63;;
71626;SDS011;59475;52.464;13.590;2023-04-07T13:49:51;10.13;;;5.60;;
71626;SDS011;59475;52.464;13.590;2023-04-07T13:52:17;17.65;;;8.93;;
71626;SDS011;59475;52.464;13.590;2023-04-07T13:54:42;9.13;;;5.07;;
71626;SDS011;59475;52.464;13.590;2023-04-07T13:57:09;11.55;;;5.32;;
71626;SDS011;59475;52.464;13.590;2023-04-07T13:59:34;11.07;;;6.27;;
71626;SDS011;59475;52.464;13.590;2023-04-07T14:02:00;9.00;;;5.65;;
71626;SDS011;59475;52.464;13.590;2023-04-07T14:04:25;13.67;;;6.23;;
71626;SDS011;59475;52.464;13.590;2023-04-07T14:06:51;9.40;;;4.20;;
71626;SDS011;59475;52.464;13.590;2023-04-07T14:09:17;11.15;;;5.80;;
71626;SDS011;59475;52.464;13.590;2023-04-07T14:11:42;7.63;;;4.97;;
71626;SDS011;59475;52.464;13.590;2023-04-07T14:14:08;16.20;;;7.70;;
71626;SDS011;59475;52.464;13.590;2023-04-07T14:16:33;8.82;;;6.22;;
71626;SDS011;59475;52.464;13.590;2023-04-07T14:18:58;11.23;;;6.67;;
71626;SDS011;59475;52.464;13.590;2023-04-07T14:21:24;13.87;;;6.60;;
71626;SDS011;59475;52.464;13.590;2023-04-07T14:23:51;14.40;;;6.32;;
71626;SDS011;59475;52.464;13.590;2023-04-07T14:26:17;9.70;;;5.40;;
71626;SDS011;59475;52.464;13.590;2023-04-07T14:28:43;8.60;;;5.37;;
71626;SDS011;59475;52.464;13.590;2023-04-07T14:31:12;12.00;;;6.33;;
71626;SDS011;59475;52.464;13.590;2023-04-07T14:33:39;11.77;;;6.55;;
71626;SDS011;59475;52.464;13.590;2023-04-07T14:36:05;8.18;;;4.05;;
71626;SDS011;59475;52.464;13.590;2023-04-07T14:38:31;9.60;;;5.73;;
71626;SDS011;59475;52.464;13.590;2023-04-07T14:40:56;10.00;;;5.80;;